createdAt,value
2023-02-02T00:02:57.665Z,48.90
2023-02-02T00:06:05.335Z,45.43
2023-02-02T00:09:15.289Z,48.33
2023-02-02T00:12:20.177Z,51.20
2023-02-02T00:15:26.496Z,46.18
2023-02-02T00:18:26.492Z,48.63
2023-02-02T00:21:25.338Z,54.30
2023-02-02T00:24:32.594Z,50.83
2023-02-02T00:27:37.492Z,44.00
2023-02-02T00:30:43.831Z,45.20
2023-02-02T00:33:51.538Z,54.10
2023-02-02T00:36:58.302Z,56.10
2023-02-02T00:40:04.362Z,52.85
2023-02-02T00:43:11.056Z,53.60
2023-02-02T00:46:18.132Z,45.40
2023-02-02T00:49:24.779Z,43.13
2023-02-02T00:52:31.328Z,42.65
2023-02-02T00:55:38.445Z,46.23
2023-02-02T00:58:44.647Z,39.83
2023-02-02T01:01:50.602Z,43.48
2023-02-02T01:04:56.829Z,49.18
2023-02-02T01:07:58.575Z,40.60
2023-02-02T01:11:05.047Z,33.95
2023-02-02T01:14:10.664Z,37.40
2023-02-02T01:17:16.561Z,41.33
2023-02-02T01:20:23.064Z,47.73
2023-02-02T01:23:31.230Z,33.80
2023-02-02T01:26:37.236Z,43.83
2023-02-02T01:29:43.411Z,44.85
2023-02-02T01:32:48.823Z,42.93
2023-02-02T01:36:06.707Z,44.00
2023-02-02T01:39:12.739Z,37.80
2023-02-02T01:42:17.866Z,43.08
2023-02-02T01:45:33.823Z,43.30
2023-02-02T01:48:44.616Z,38.75
2023-02-02T01:52:09.257Z,43.90
2023-02-02T01:55:22.275Z,50.65
2023-02-02T01:58:39.070Z,43.13
2023-02-02T02:01:45.389Z,43.60
2023-02-02T02:04:50.871Z,40.52
2023-02-02T02:07:57.093Z,32.13
2023-02-02T02:10:56.279Z,44.13
2023-02-02T02:14:21.358Z,42.67
2023-02-02T02:17:53.112Z,44.13
2023-02-02T02:21:37.119Z,39.45
2023-02-02T02:25:25.148Z,44.60
2023-02-02T02:28:51.496Z,45.67
2023-02-02T02:32:39.484Z,44.55
2023-02-02T02:36:13.034Z,46.15
2023-02-02T02:39:33.473Z,48.28
2023-02-02T02:42:41.992Z,45.85
2023-02-02T02:45:47.832Z,41.58
2023-02-02T02:48:52.959Z,42.95
2023-02-02T02:52:08.927Z,52.80
2023-02-02T02:55:14.628Z,55.35
2023-02-02T02:58:27.866Z,47.83
2023-02-02T03:01:50.724Z,44.40
2023-02-02T03:05:09.750Z,41.73
2023-02-02T03:08:24.332Z,48.60
2023-02-02T03:11:29.617Z,46.33
2023-02-02T03:14:35.628Z,45.05
2023-02-02T03:17:43.412Z,52.53
2023-02-02T03:20:49.002Z,47.03
2023-02-02T03:23:55.675Z,42.95
2023-02-02T03:27:01.550Z,41.48
2023-02-02T03:30:07.535Z,43.73
2023-02-02T03:33:13.076Z,46.35
2023-02-02T03:36:19.670Z,50.15
2023-02-02T03:39:26.182Z,47.27
2023-02-02T03:42:32.747Z,49.18
2023-02-02T03:45:42.473Z,49.93
2023-02-02T03:48:53.015Z,45.58
2023-02-02T03:51:59.076Z,46.45
2023-02-02T03:55:05.492Z,49.83
2023-02-02T03:58:11.136Z,50.05
2023-02-02T04:01:24.362Z,46.28
2023-02-02T04:04:29.925Z,53.10
2023-02-02T04:07:36.343Z,42.83
2023-02-02T04:10:42.071Z,45.23
2023-02-02T04:13:49.787Z,51.70
2023-02-02T04:16:57.341Z,38.65
2023-02-02T04:20:04.461Z,53.65
2023-02-02T04:23:11.093Z,46.92
2023-02-02T04:26:17.531Z,68.25
2023-02-02T04:29:24.475Z,52.60
2023-02-02T04:32:31.029Z,39.20
2023-02-02T04:35:37.398Z,43.17
2023-02-02T04:38:42.805Z,39.18
2023-02-02T04:41:48.681Z,41.73
2023-02-02T04:44:54.401Z,37.38
2023-02-02T04:48:01.060Z,37.78
2023-02-02T04:51:15.706Z,41.37
2023-02-02T04:54:22.577Z,38.25
2023-02-02T04:57:27.368Z,43.48
2023-02-02T05:00:32.837Z,37.35
2023-02-02T05:03:38.200Z,41.15
2023-02-02T05:06:43.933Z,38.38
2023-02-02T05:09:43.768Z,33.67
2023-02-02T05:12:36.237Z,40.28
2023-02-02T05:15:41.308Z,34.35
2023-02-02T05:18:47.966Z,30.80
2023-02-02T05:21:56.344Z,36.28
2023-02-02T05:25:02.634Z,37.50
2023-02-02T05:28:08.357Z,36.35
2023-02-02T05:31:14.840Z,34.35
2023-02-02T05:34:20.408Z,36.93
2023-02-02T05:37:27.778Z,37.40
2023-02-02T05:40:34.309Z,42.95
2023-02-02T05:43:44.124Z,37.20
2023-02-02T05:46:45.408Z,39.92
2023-02-02T05:52:58.555Z,42.45
2023-02-02T05:56:04.714Z,40.23
2023-02-02T05:59:11.758Z,44.23
2023-02-02T06:02:17.140Z,40.65
2023-02-02T06:05:23.364Z,43.42
2023-02-02T06:08:28.661Z,39.75
2023-02-02T06:11:34.216Z,40.12
2023-02-02T06:14:40.236Z,39.30
2023-02-02T06:17:45.419Z,43.15
2023-02-02T06:20:53.714Z,38.02
2023-02-02T06:24:00.604Z,37.48
2023-02-02T06:27:09.365Z,43.48
2023-02-02T06:30:21.399Z,39.73
2023-02-02T06:33:26.723Z,45.90
2023-02-02T06:36:35.244Z,48.28
2023-02-02T06:39:41.109Z,58.33
2023-02-02T06:42:46.458Z,44.45
2023-02-02T06:45:52.487Z,42.85
2023-02-02T06:48:57.994Z,44.50
2023-02-02T06:52:03.611Z,38.80
2023-02-02T06:55:11.505Z,37.60
2023-02-02T06:58:18.031Z,38.53
2023-02-02T07:01:26.781Z,39.90
2023-02-02T07:04:34.899Z,42.70
2023-02-02T07:07:45.097Z,37.80
2023-02-02T07:11:11.582Z,39.48
2023-02-02T07:14:14.959Z,30.72
2023-02-02T07:17:20.053Z,32.67
2023-02-02T07:20:27.792Z,37.67
2023-02-02T07:23:32.969Z,39.08
2023-02-02T07:26:38.711Z,35.73
2023-02-02T07:29:47.013Z,31.82
2023-02-02T07:32:53.642Z,28.10
2023-02-02T07:36:01.343Z,24.10
2023-02-02T07:39:10.574Z,26.33
2023-02-02T07:42:17.854Z,28.15
2023-02-02T07:45:27.224Z,35.13
2023-02-02T07:48:30.888Z,29.63
2023-02-02T07:51:38.260Z,31.23
2023-02-02T07:54:43.417Z,31.02
2023-02-02T07:57:49.188Z,25.70
2023-02-02T08:00:55.755Z,25.90
2023-02-02T08:04:02.002Z,35.83
2023-02-02T08:07:07.681Z,30.02
2023-02-02T08:10:16.370Z,27.90
2023-02-02T08:13:24.819Z,32.08
2023-02-02T08:16:29.927Z,30.10
2023-02-02T08:19:35.695Z,24.25
2023-02-02T08:22:50.646Z,28.57
2023-02-02T08:25:57.670Z,31.20
2023-02-02T08:29:09.802Z,28.20
2023-02-02T08:32:16.541Z,27.02
2023-02-02T08:35:21.426Z,27.52
2023-02-02T08:38:27.007Z,21.12
2023-02-02T08:41:36.495Z,26.15
2023-02-02T08:45:59.538Z,24.02
2023-02-02T08:47:56.005Z,24.80
2023-02-02T08:50:56.050Z,30.02
2023-02-02T08:54:02.257Z,24.05
2023-02-02T08:57:07.040Z,25.02
2023-02-02T09:00:13.818Z,21.10
2023-02-02T09:03:19.607Z,23.38
2023-02-02T09:06:33.327Z,23.18
2023-02-02T09:09:38.883Z,22.15
2023-02-02T09:12:45.111Z,25.97
2023-02-02T09:15:50.520Z,26.97
2023-02-02T09:18:56.438Z,33.08
2023-02-02T09:22:04.008Z,23.62
2023-02-02T09:25:09.632Z,25.02
2023-02-02T09:28:15.192Z,24.20
2023-02-02T09:31:20.395Z,25.30
2023-02-02T09:34:27.886Z,29.23
2023-02-02T09:37:32.952Z,36.40
2023-02-02T09:40:38.811Z,24.60
2023-02-02T09:44:13.392Z,25.92
2023-02-02T09:48:02.166Z,26.70
2023-02-02T09:51:12.589Z,26.00
2023-02-02T09:57:35.327Z,19.73
2023-02-02T10:00:49.845Z,20.72
2023-02-02T10:04:18.373Z,22.30
2023-02-02T10:07:29.958Z,21.05
2023-02-02T10:10:52.131Z,26.57
2023-02-02T10:14:00.666Z,25.77
2023-02-02T10:17:08.660Z,26.42
2023-02-02T10:20:31.274Z,24.52
2023-02-02T10:23:54.657Z,33.40
2023-02-02T10:27:20.255Z,25.25
2023-02-02T10:30:34.476Z,25.15
2023-02-02T10:33:55.049Z,21.12
2023-02-02T10:40:50.793Z,20.88
2023-02-02T10:44:20.444Z,21.15
2023-02-02T10:47:30.053Z,30.60
2023-02-02T10:50:35.895Z,29.07
2023-02-02T10:53:43.643Z,23.70
2023-02-02T10:56:59.093Z,19.20
2023-02-02T11:00:31.998Z,20.40
2023-02-02T11:03:47.363Z,30.15
2023-02-02T11:07:01.434Z,31.55
2023-02-02T11:10:06.582Z,32.90
2023-02-02T11:13:12.563Z,28.30
2023-02-02T11:16:43.183Z,26.02
2023-02-02T11:19:46.493Z,29.30
2023-02-02T11:22:52.329Z,28.02
2023-02-02T11:25:57.933Z,30.90
2023-02-02T11:29:05.421Z,30.92
2023-02-02T11:32:10.273Z,30.92
2023-02-02T11:35:36.646Z,31.57
2023-02-02T11:38:42.460Z,33.95
2023-02-02T11:41:48.851Z,32.45
2023-02-02T11:44:54.841Z,28.57
2023-02-02T11:48:00.799Z,32.85
2023-02-02T11:51:09.992Z,30.00
2023-02-02T11:54:36.500Z,24.95
2023-02-02T11:57:42.726Z,28.07
2023-02-02T12:00:47.830Z,30.65
2023-02-02T12:03:54.067Z,25.45
2023-02-02T12:07:00.519Z,29.48
2023-02-02T12:10:05.394Z,20.92
2023-02-02T12:13:33.044Z,21.75
2023-02-02T12:17:02.175Z,25.30
2023-02-02T12:20:27.604Z,27.15
2023-02-02T12:23:40.583Z,23.07
2023-02-02T12:26:50.858Z,23.45
2023-02-02T12:30:19.338Z,19.32
2023-02-02T12:34:01.648Z,27.95
2023-02-02T12:37:40.936Z,20.72
2023-02-02T12:41:02.327Z,29.45
2023-02-02T12:44:23.675Z,28.98
2023-02-02T12:47:50.652Z,19.32
2023-02-02T12:51:33.474Z,22.30
2023-02-02T12:54:52.497Z,24.20
2023-02-02T12:58:27.112Z,29.32
2023-02-02T13:01:49.114Z,24.35
2023-02-02T13:05:35.814Z,17.35
2023-02-02T13:09:20.374Z,20.68
2023-02-02T13:12:26.953Z,23.47
2023-02-02T13:15:33.474Z,16.45
2023-02-02T13:18:31.264Z,27.48
2023-02-02T13:21:26.234Z,19.42
2023-02-02T13:24:13.095Z,17.42
2023-02-02T13:27:06.830Z,23.07
2023-02-02T13:30:01.598Z,22.42
2023-02-02T13:32:54.376Z,23.32
2023-02-02T13:36:20.164Z,15.05
2023-02-02T13:39:43.210Z,17.92
2023-02-02T13:43:07.681Z,18.37
2023-02-02T13:46:41.746Z,22.07
2023-02-02T13:49:58.053Z,21.20
2023-02-02T13:53:21.733Z,20.72
2023-02-02T13:57:12.521Z,20.85
2023-02-02T14:00:39.592Z,17.32
2023-02-02T14:04:00.137Z,25.32
2023-02-02T14:10:05.119Z,27.25
2023-02-02T14:13:10.907Z,21.73
2023-02-02T14:16:18.741Z,18.75
2023-02-02T14:19:47.483Z,17.32
2023-02-02T14:23:01.687Z,14.87
2023-02-02T14:26:22.589Z,21.07
2023-02-02T14:29:52.341Z,21.85
2023-02-02T14:32:57.381Z,21.37
2023-02-02T14:36:07.930Z,24.35
2023-02-02T14:39:20.409Z,21.45
2023-02-02T14:43:08.180Z,24.82
2023-02-02T14:46:39.303Z,25.80
2023-02-02T14:49:47.698Z,26.42
2023-02-02T14:52:53.968Z,20.80
2023-02-02T14:56:23.800Z,22.45
2023-02-02T14:59:44.105Z,21.87
2023-02-02T15:02:53.972Z,20.95
2023-02-02T15:06:01.325Z,21.90
2023-02-02T15:09:32.557Z,19.95
2023-02-02T15:12:47.497Z,25.08
2023-02-02T15:15:54.169Z,22.58
2023-02-02T15:19:04.479Z,20.12
2023-02-02T15:22:09.839Z,19.52
2023-02-02T15:25:18.038Z,22.80
2023-02-02T15:29:13.447Z,29.10
2023-02-02T15:32:20.574Z,55.70
2023-02-02T15:35:38.295Z,35.58
2023-02-02T15:38:53.829Z,29.72
2023-02-02T15:42:01.284Z,27.87
2023-02-02T15:45:07.505Z,32.95
2023-02-02T15:48:14.310Z,28.75
2023-02-02T15:51:30.120Z,26.17
2023-02-02T15:54:41.091Z,28.27
2023-02-02T15:57:49.543Z,33.13
2023-02-02T16:00:55.566Z,31.37
2023-02-02T16:04:08.235Z,30.65
2023-02-02T16:07:14.072Z,35.70
2023-02-02T16:10:20.906Z,27.52
2023-02-02T16:13:43.462Z,33.78
2023-02-02T16:16:54.524Z,38.67
2023-02-02T16:19:59.414Z,41.08
2023-02-02T16:23:06.282Z,47.50
2023-02-02T16:26:12.108Z,38.02
2023-02-02T16:29:17.710Z,40.70
2023-02-02T16:32:50.096Z,46.50
2023-02-02T16:35:57.184Z,41.30
2023-02-02T16:39:04.203Z,42.23
2023-02-02T16:42:09.661Z,47.50
2023-02-02T16:45:09.193Z,42.83
2023-02-02T16:51:40.027Z,38.75
2023-02-02T16:54:35.574Z,38.17
2023-02-02T16:57:43.992Z,38.88
2023-02-02T17:00:49.871Z,37.60
2023-02-02T17:03:59.984Z,31.82
2023-02-02T17:07:06.291Z,45.23
2023-02-02T17:10:38.758Z,49.85
2023-02-02T17:13:50.341Z,41.18
2023-02-02T17:16:56.726Z,39.05
2023-02-02T17:20:02.892Z,36.03
2023-02-02T17:23:13.084Z,30.05
2023-02-02T17:26:18.389Z,29.77
2023-02-02T17:29:33.064Z,31.40
2023-02-02T17:32:40.169Z,27.10
2023-02-02T17:35:55.747Z,25.88
2023-02-02T17:38:53.452Z,19.12
2023-02-02T17:42:00.775Z,22.73
2023-02-02T17:45:06.606Z,30.70
2023-02-02T17:48:14.645Z,36.45
2023-02-02T17:51:23.135Z,33.60
2023-02-02T17:54:28.989Z,35.35
2023-02-02T17:57:34.434Z,32.80
2023-02-02T18:00:41.143Z,34.90
2023-02-02T18:03:50.462Z,34.58
2023-02-02T18:06:56.130Z,42.40
2023-02-02T18:10:01.480Z,31.42
2023-02-02T18:13:07.656Z,36.40
2023-02-02T18:16:14.706Z,33.38
2023-02-02T18:19:21.321Z,29.35
2023-02-02T18:22:28.024Z,25.43
2023-02-02T18:25:33.931Z,24.70
2023-02-02T18:28:39.397Z,23.18
2023-02-02T18:31:45.253Z,18.73
2023-02-02T18:34:53.080Z,15.55
2023-02-02T18:37:52.637Z,14.93
2023-02-02T18:40:58.331Z,13.55
2023-02-02T18:44:04.352Z,12.58
2023-02-02T18:47:10.927Z,15.23
2023-02-02T18:50:17.993Z,14.73
2023-02-02T18:53:24.515Z,18.20
2023-02-02T18:56:30.731Z,14.95
2023-02-02T18:59:38.752Z,14.50
2023-02-02T19:02:45.722Z,18.32
2023-02-02T19:06:09.939Z,17.12
2023-02-02T19:09:15.906Z,19.62
2023-02-02T19:12:26.529Z,21.70
2023-02-02T19:15:33.394Z,17.52
2023-02-02T19:18:39.617Z,16.57
2023-02-02T19:21:48.362Z,17.37
2023-02-02T19:24:54.749Z,34.98
2023-02-02T19:28:00.857Z,16.90
2023-02-02T19:31:07.993Z,15.68
2023-02-02T19:34:13.499Z,14.68
2023-02-02T19:37:35.528Z,12.25
2023-02-02T19:40:40.635Z,7.35
2023-02-02T19:43:48.515Z,11.35
2023-02-02T19:46:58.441Z,11.60
2023-02-02T19:50:03.469Z,11.53
2023-02-02T19:53:11.635Z,8.13
2023-02-02T19:56:18.861Z,17.37
2023-02-02T19:59:31.114Z,13.10
2023-02-02T20:02:53.961Z,13.58
2023-02-02T20:06:02.270Z,10.03
2023-02-02T20:09:08.240Z,5.67
2023-02-02T20:12:14.309Z,7.67
2023-02-02T20:15:30.363Z,8.45
2023-02-02T20:18:47.995Z,6.08
2023-02-02T20:22:00.753Z,8.55
2023-02-02T20:25:07.844Z,5.15
2023-02-02T20:28:15.108Z,5.75
2023-02-02T20:31:22.443Z,8.88
2023-02-02T20:34:44.012Z,6.00
2023-02-02T20:37:50.252Z,6.05
2023-02-02T20:40:55.103Z,6.72
2023-02-02T20:44:01.336Z,5.17
2023-02-02T20:47:07.516Z,5.83
2023-02-02T20:50:13.241Z,6.03
2023-02-02T20:53:22.333Z,5.45
2023-02-02T20:56:27.161Z,6.22
2023-02-02T20:59:33.299Z,7.15
2023-02-02T21:02:39.552Z,5.85
2023-02-02T21:05:45.731Z,9.65
2023-02-02T21:08:51.600Z,7.55
2023-02-02T21:11:57.091Z,11.60
2023-02-02T21:15:02.358Z,5.08
2023-02-02T21:18:07.776Z,7.40
2023-02-02T21:21:13.820Z,5.50
2023-02-02T21:24:18.993Z,5.58
2023-02-02T21:27:24.108Z,7.87
2023-02-02T21:30:29.566Z,6.47
2023-02-02T21:33:36.056Z,6.12
2023-02-02T21:37:00.891Z,6.87
2023-02-02T21:40:07.115Z,7.95
2023-02-02T21:43:15.905Z,8.38
2023-02-02T21:46:36.755Z,8.80
2023-02-02T21:49:48.490Z,10.10
2023-02-02T21:52:54.619Z,11.08
2023-02-02T21:56:02.312Z,9.10
2023-02-02T21:59:10.681Z,7.80
2023-02-02T22:02:22.766Z,12.70
2023-02-02T22:05:43.839Z,13.20
2023-02-02T22:08:50.318Z,18.32
2023-02-02T22:12:05.724Z,19.62
2023-02-02T22:15:16.362Z,14.68
2023-02-02T22:18:36.206Z,14.30
2023-02-02T22:21:43.190Z,22.17
2023-02-02T22:24:49.721Z,11.25
2023-02-02T22:28:00.706Z,8.73
2023-02-02T22:31:08.661Z,6.35
2023-02-02T22:34:14.958Z,10.18
2023-02-02T22:37:20.926Z,7.03
2023-02-02T22:40:29.645Z,10.58
2023-02-02T22:43:36.162Z,9.20
2023-02-02T22:46:42.555Z,5.95
2023-02-02T22:49:49.397Z,6.15
2023-02-02T22:52:57.199Z,12.50
2023-02-02T22:56:04.861Z,10.75
2023-02-02T22:59:11.911Z,6.78
2023-02-02T23:02:16.848Z,8.13
2023-02-02T23:05:25.084Z,7.28
2023-02-02T23:08:32.133Z,7.70
2023-02-02T23:11:38.787Z,7.80
2023-02-02T23:14:44.233Z,6.12
2023-02-02T23:17:50.547Z,6.30
2023-02-02T23:20:57.286Z,7.80
2023-02-02T23:24:03.336Z,6.65
2023-02-02T23:27:09.375Z,6.95
2023-02-02T23:30:15.187Z,9.55
2023-02-02T23:33:21.498Z,8.98
2023-02-02T23:36:26.627Z,8.00
2023-02-02T23:39:32.248Z,8.78
2023-02-02T23:42:38.613Z,12.18
2023-02-02T23:45:45.723Z,7.22
2023-02-02T23:48:51.601Z,7.75
2023-02-02T23:51:58.053Z,7.70
2023-02-02T23:55:04.697Z,8.60
2023-02-02T23:58:10.583Z,8.60
